sensor_id;sensor_type;location;lat;lon;timestamp;pressure;altitude;pressure_sealevel;temperature;humidity
35023;BME280;21214;44.912;8.204;2023-05-29T00:00:02;99558.72;;;20.01;100.00
35023;BME280;21214;44.912;8.204;2023-05-29T00:02:35;99561.81;;;20.04;100.00
35023;BME280;21214;44.912;8.204;2023-05-29T00:05:00;99565.09;;;20.07;100.00
35023;BME280;21214;44.912;8.204;2023-05-29T00:07:31;99560.16;;;20.03;100.00
35023;BME280;21214;44.912;8.204;2023-05-29T00:09:57;99560.16;;;20.03;100.00
35023;BME280;21214;44.912;8.204;2023-05-29T00:12:23;99551.91;;;20.05;100.00
35023;BME280;21214;44.912;8.204;2023-05-29T00:14:49;99555.63;;;20.04;100.00
35023;BME280;21214;44.912;8.204;2023-05-29T00:17:14;99555.63;;;20.04;100.00
35023;BME280;21214;44.912;8.204;2023-05-29T00:19:42;99558.28;;;20.04;100.00
35023;BME280;21214;44.912;8.204;2023-05-29T00:22:07;99562.00;;;19.96;100.00
35023;BME280;21214;44.912;8.204;2023-05-29T00:24:33;99572.50;;;19.98;100.00
35023;BME280;21214;44.912;8.204;2023-05-29T00:26:58;99573.75;;;20.02;100.00
35023;BME280;21214;44.912;8.204;2023-05-29T00:29:23;99578.69;;;20.05;100.00
35023;BME280;21214;44.912;8.204;2023-05-29T00:31:49;99590.66;;;20.09;100.00
35023;BME280;21214;44.912;8.204;2023-05-29T00:34:14;99582.22;;;20.06;100.00
35023;BME280;21214;44.912;8.204;2023-05-29T00:36:40;99576.34;;;19.69;100.00
35023;BME280;21214;44.912;8.204;2023-05-29T00:39:05;99560.47;;;19.61;100.00
35023;BME280;21214;44.912;8.204;2023-05-29T00:41:32;99562.34;;;19.33;100.00
35023;BME280;21214;44.912;8.204;2023-05-29T00:43:58;99560.19;;;19.08;100.00
35023;BME280;21214;44.912;8.204;2023-05-29T00:46:23;99570.59;;;18.97;100.00
35023;BME280;21214;44.912;8.204;2023-05-29T00:48:49;99583.44;;;18.80;100.00
35023;BME280;21214;44.912;8.204;2023-05-29T00:51:14;99586.28;;;18.72;100.00
35023;BME280;21214;44.912;8.204;2023-05-29T00:53:41;99603.03;;;18.59;100.00
35023;BME280;21214;44.912;8.204;2023-05-29T00:56:07;99610.88;;;18.61;100.00
35023;BME280;21214;44.912;8.204;2023-05-29T00:58:34;99604.97;;;18.51;100.00
35023;BME280;21214;44.912;8.204;2023-05-29T01:00:59;99608.09;;;18.54;100.00
35023;BME280;21214;44.912;8.204;2023-05-29T01:03:25;99607.63;;;18.51;100.00
35023;BME280;21214;44.912;8.204;2023-05-29T01:05:51;99619.31;;;18.64;100.00
35023;BME280;21214;44.912;8.204;2023-05-29T01:08:17;99609.44;;;18.65;100.00
35023;BME280;21214;44.912;8.204;2023-05-29T01:10:43;99612.50;;;18.62;100.00
35023;BME280;21214;44.912;8.204;2023-05-29T01:13:16;99611.41;;;18.56;100.00
35023;BME280;21214;44.912;8.204;2023-05-29T01:18:34;99609.56;;;18.57;100.00
35023;BME280;21214;44.912;8.204;2023-05-29T01:21:06;99616.47;;;18.51;100.00
35023;BME280;21214;44.912;8.204;2023-05-29T01:26:20;99614.56;;;18.60;100.00
35023;BME280;21214;44.912;8.204;2023-05-29T01:28:51;99619.34;;;18.50;100.00
35023;BME280;21214;44.912;8.204;2023-05-29T01:31:20;99611.53;;;18.48;100.00
35023;BME280;21214;44.912;8.204;2023-05-29T01:33:54;99616.31;;;18.31;100.00
35023;BME280;21214;44.912;8.204;2023-05-29T01:36:20;99618.63;;;17.98;100.00
35023;BME280;21214;44.912;8.204;2023-05-29T01:38:48;99624.47;;;17.87;100.00
35023;BME280;21214;44.912;8.204;2023-05-29T01:41:15;99621.38;;;17.69;100.00
35023;BME280;21214;44.912;8.204;2023-05-29T01:43:42;99624.59;;;17.65;100.00
35023;BME280;21214;44.912;8.204;2023-05-29T01:46:09;99613.53;;;17.68;100.00
35023;BME280;21214;44.912;8.204;2023-05-29T01:48:35;99617.50;;;17.72;100.00
35023;BME280;21214;44.912;8.204;2023-05-29T01:51:00;99618.53;;;17.71;100.00
35023;BME280;21214;44.912;8.204;2023-05-29T01:53:26;99616.88;;;17.70;100.00
35023;BME280;21214;44.912;8.204;2023-05-29T01:55:51;99617.78;;;17.62;100.00
35023;BME280;21214;44.912;8.204;2023-05-29T01:58:17;99603.91;;;17.67;100.00
35023;BME280;21214;44.912;8.204;2023-05-29T02:00:43;99610.97;;;17.59;100.00
35023;BME280;21214;44.912;8.204;2023-05-29T02:03:08;99613.38;;;17.54;100.00
35023;BME280;21214;44.912;8.204;2023-05-29T02:05:34;99613.38;;;17.54;100.00
35023;BME280;21214;44.912;8.204;2023-05-29T02:07:59;99619.00;;;17.30;100.00
35023;BME280;21214;44.912;8.204;2023-05-29T02:10:25;99618.88;;;17.09;100.00
35023;BME280;21214;44.912;8.204;2023-05-29T02:12:50;99611.34;;;16.98;100.00
35023;BME280;21214;44.912;8.204;2023-05-29T02:15:15;99612.44;;;16.89;100.00
35023;BME280;21214;44.912;8.204;2023-05-29T02:17:41;99617.66;;;16.82;100.00
35023;BME280;21214;44.912;8.204;2023-05-29T02:20:06;99619.06;;;16.93;100.00
35023;BME280;21214;44.912;8.204;2023-05-29T02:22:32;99603.06;;;16.93;100.00
35023;BME280;21214;44.912;8.204;2023-05-29T02:24:58;99613.00;;;16.99;100.00
35023;BME280;21214;44.912;8.204;2023-05-29T02:27:23;99602.78;;;17.02;100.00
35023;BME280;21214;44.912;8.204;2023-05-29T02:29:49;99601.59;;;17.05;100.00
35023;BME280;21214;44.912;8.204;2023-05-29T02:32:15;99607.66;;;16.99;100.00
35023;BME280;21214;44.912;8.204;2023-05-29T02:34:40;99607.44;;;16.86;100.00
35023;BME280;21214;44.912;8.204;2023-05-29T02:37:05;99607.84;;;16.83;100.00
35023;BME280;21214;44.912;8.204;2023-05-29T02:39:31;99602.84;;;16.79;100.00
35023;BME280;21214;44.912;8.204;2023-05-29T02:41:56;99600.84;;;16.67;100.00
35023;BME280;21214;44.912;8.204;2023-05-29T02:44:21;99605.97;;;16.68;100.00
35023;BME280;21214;44.912;8.204;2023-05-29T02:46:47;99601.72;;;16.59;100.00
35023;BME280;21214;44.912;8.204;2023-05-29T02:49:14;99587.59;;;16.51;100.00
35023;BME280;21214;44.912;8.204;2023-05-29T02:51:39;99589.38;;;16.58;100.00
35023;BME280;21214;44.912;8.204;2023-05-29T02:54:05;99594.13;;;16.48;100.00
35023;BME280;21214;44.912;8.204;2023-05-29T02:56:30;99596.13;;;16.46;100.00
35023;BME280;21214;44.912;8.204;2023-05-29T02:58:55;99584.53;;;16.39;100.00
35023;BME280;21214;44.912;8.204;2023-05-29T03:01:21;99588.03;;;16.39;100.00
35023;BME280;21214;44.912;8.204;2023-05-29T03:03:47;99588.56;;;16.35;100.00
35023;BME280;21214;44.912;8.204;2023-05-29T03:06:13;99584.41;;;16.32;100.00
35023;BME280;21214;44.912;8.204;2023-05-29T03:08:39;99587.19;;;16.39;100.00
35023;BME280;21214;44.912;8.204;2023-05-29T03:11:10;99586.16;;;16.48;100.00
35023;BME280;21214;44.912;8.204;2023-05-29T03:13:36;99583.81;;;16.45;100.00
35023;BME280;21214;44.912;8.204;2023-05-29T03:16:04;99578.16;;;16.48;100.00
35023;BME280;21214;44.912;8.204;2023-05-29T03:18:30;99585.84;;;16.43;100.00
35023;BME280;21214;44.912;8.204;2023-05-29T03:20:55;99594.19;;;16.40;100.00
35023;BME280;21214;44.912;8.204;2023-05-29T03:23:21;99588.19;;;16.38;100.00
35023;BME280;21214;44.912;8.204;2023-05-29T03:25:46;99579.44;;;16.52;100.00
35023;BME280;21214;44.912;8.204;2023-05-29T03:28:12;99586.69;;;16.66;100.00
35023;BME280;21214;44.912;8.204;2023-05-29T03:30:37;99594.22;;;16.77;100.00
35023;BME280;21214;44.912;8.204;2023-05-29T03:33:03;99595.63;;;16.88;100.00
35023;BME280;21214;44.912;8.204;2023-05-29T03:35:46;99597.38;;;16.96;100.00
35023;BME280;21214;44.912;8.204;2023-05-29T03:38:13;99598.28;;;17.03;100.00
35023;BME280;21214;44.912;8.204;2023-05-29T03:40:38;99603.38;;;17.12;100.00
35023;BME280;21214;44.912;8.204;2023-05-29T03:43:04;99603.19;;;17.14;100.00
35023;BME280;21214;44.912;8.204;2023-05-29T03:45:29;99605.03;;;17.13;100.00
35023;BME280;21214;44.912;8.204;2023-05-29T03:47:54;99599.22;;;17.10;100.00
35023;BME280;21214;44.912;8.204;2023-05-29T03:50:20;99599.38;;;16.94;100.00
35023;BME280;21214;44.912;8.204;2023-05-29T03:52:46;99594.72;;;16.96;100.00
35023;BME280;21214;44.912;8.204;2023-05-29T03:55:12;99599.66;;;16.99;100.00
35023;BME280;21214;44.912;8.204;2023-05-29T03:57:39;99598.09;;;17.04;100.00
35023;BME280;21214;44.912;8.204;2023-05-29T04:00:06;99602.88;;;17.09;100.00
35023;BME280;21214;44.912;8.204;2023-05-29T04:02:38;99605.28;;;17.04;100.00
35023;BME280;21214;44.912;8.204;2023-05-29T04:05:04;99606.09;;;16.90;100.00
35023;BME280;21214;44.912;8.204;2023-05-29T04:07:32;99605.44;;;16.88;100.00
35023;BME280;21214;44.912;8.204;2023-05-29T04:09:58;99616.66;;;16.98;100.00
35023;BME280;21214;44.912;8.204;2023-05-29T04:12:23;99610.03;;;17.08;100.00
35023;BME280;21214;44.912;8.204;2023-05-29T04:14:49;99613.19;;;17.12;100.00
35023;BME280;21214;44.912;8.204;2023-05-29T04:17:14;99610.81;;;17.17;100.00
35023;BME280;21214;44.912;8.204;2023-05-29T04:19:41;99609.13;;;17.16;100.00
35023;BME280;21214;44.912;8.204;2023-05-29T04:22:07;99608.53;;;17.14;100.00
35023;BME280;21214;44.912;8.204;2023-05-29T04:24:32;99615.13;;;17.18;100.00
35023;BME280;21214;44.912;8.204;2023-05-29T04:26:58;99614.03;;;17.12;100.00
35023;BME280;21214;44.912;8.204;2023-05-29T04:29:26;99618.88;;;17.09;100.00
35023;BME280;21214;44.912;8.204;2023-05-29T04:31:51;99622.97;;;17.19;100.00
35023;BME280;21214;44.912;8.204;2023-05-29T04:34:17;99626.25;;;17.07;100.00
35023;BME280;21214;44.912;8.204;2023-05-29T04:36:44;99620.19;;;17.13;100.00
35023;BME280;21214;44.912;8.204;2023-05-29T04:39:12;99625.13;;;17.16;100.00
35023;BME280;21214;44.912;8.204;2023-05-29T04:41:37;99635.56;;;17.26;100.00
35023;BME280;21214;44.912;8.204;2023-05-29T04:44:04;99634.34;;;17.28;100.00
35023;BME280;21214;44.912;8.204;2023-05-29T04:46:39;99632.59;;;17.35;100.00
35023;BME280;21214;44.912;8.204;2023-05-29T04:49:04;99620.00;;;17.29;100.00
35023;BME280;21214;44.912;8.204;2023-05-29T04:51:29;99625.59;;;17.34;100.00
35023;BME280;21214;44.912;8.204;2023-05-29T04:53:55;99617.69;;;17.26;100.00
35023;BME280;21214;44.912;8.204;2023-05-29T04:56:20;99618.34;;;17.28;100.00
35023;BME280;21214;44.912;8.204;2023-05-29T04:58:47;99624.22;;;17.38;100.00
35023;BME280;21214;44.912;8.204;2023-05-29T05:01:13;99638.22;;;17.40;100.00
35023;BME280;21214;44.912;8.204;2023-05-29T05:03:43;99627.19;;;17.43;100.00
35023;BME280;21214;44.912;8.204;2023-05-29T05:06:08;99634.34;;;17.28;100.00
35023;BME280;21214;44.912;8.204;2023-05-29T05:08:35;99636.00;;;17.29;100.00
35023;BME280;21214;44.912;8.204;2023-05-29T05:11:01;99630.84;;;17.42;100.00
35023;BME280;21214;44.912;8.204;2023-05-29T05:13:27;99636.72;;;17.52;100.00
35023;BME280;21214;44.912;8.204;2023-05-29T05:15:53;99639.88;;;17.41;100.00
35023;BME280;21214;44.912;8.204;2023-05-29T05:18:19;99637.94;;;17.35;100.00
35023;BME280;21214;44.912;8.204;2023-05-29T05:20:52;99644.00;;;17.44;100.00
35023;BME280;21214;44.912;8.204;2023-05-29T05:23:17;99646.47;;;17.45;100.00
35023;BME280;21214;44.912;8.204;2023-05-29T05:25:42;99650.16;;;17.44;100.00
35023;BME280;21214;44.912;8.204;2023-05-29T05:28:08;99646.47;;;17.45;100.00
35023;BME280;21214;44.912;8.204;2023-05-29T05:30:34;99647.41;;;17.23;100.00
35023;BME280;21214;44.912;8.204;2023-05-29T05:32:59;99650.81;;;17.17;100.00
35023;BME280;21214;44.912;8.204;2023-05-29T05:35:25;99647.41;;;17.23;100.00
35023;BME280;21214;44.912;8.204;2023-05-29T05:37:51;99647.94;;;17.33;100.00
35023;BME280;21214;44.912;8.204;2023-05-29T05:40:16;99649.16;;;17.45;100.00
35023;BME280;21214;44.912;8.204;2023-05-29T05:42:49;99643.63;;;17.47;100.00
35023;BME280;21214;44.912;8.204;2023-05-29T05:45:17;99640.06;;;17.54;100.00
35023;BME280;21214;44.912;8.204;2023-05-29T05:47:43;99644.28;;;17.64;100.00
35023;BME280;21214;44.912;8.204;2023-05-29T05:50:09;99646.97;;;17.64;100.00
35023;BME280;21214;44.912;8.204;2023-05-29T05:52:34;99643.94;;;17.67;100.00
35023;BME280;21214;44.912;8.204;2023-05-29T05:55:00;99645.00;;;17.57;100.00
35023;BME280;21214;44.912;8.204;2023-05-29T05:57:25;99654.56;;;17.52;100.00
35023;BME280;21214;44.912;8.204;2023-05-29T05:59:51;99657.53;;;17.42;100.00
35023;BME280;21214;44.912;8.204;2023-05-29T06:02:17;99666.16;;;17.44;100.00
35023;BME280;21214;44.912;8.204;2023-05-29T06:04:42;99658.03;;;17.61;100.00
35023;BME280;21214;44.912;8.204;2023-05-29T06:07:09;99658.16;;;17.74;100.00
35023;BME280;21214;44.912;8.204;2023-05-29T06:09:36;99664.69;;;17.86;100.00
35023;BME280;21214;44.912;8.204;2023-05-29T06:12:01;99670.59;;;17.96;100.00
35023;BME280;21214;44.912;8.204;2023-05-29T06:14:27;99667.78;;;18.04;100.00
35023;BME280;21214;44.912;8.204;2023-05-29T06:16:53;99674.03;;;18.11;100.00
35023;BME280;21214;44.912;8.204;2023-05-29T06:19:19;99671.47;;;18.03;100.00
35023;BME280;21214;44.912;8.204;2023-05-29T06:21:58;99676.38;;;17.99;100.00
35023;BME280;21214;44.912;8.204;2023-05-29T06:24:26;99674.34;;;18.02;100.00
35023;BME280;21214;44.912;8.204;2023-05-29T06:26:51;99673.88;;;17.98;100.00
35023;BME280;21214;44.912;8.204;2023-05-29T06:29:17;99676.81;;;18.03;100.00
35023;BME280;21214;44.912;8.204;2023-05-29T06:31:43;99677.28;;;18.07;100.00
35023;BME280;21214;44.912;8.204;2023-05-29T06:34:08;99675.88;;;18.11;100.00
35023;BME280;21214;44.912;8.204;2023-05-29T06:36:34;99681.25;;;17.96;100.00
35023;BME280;21214;44.912;8.204;2023-05-29T06:39:00;99671.59;;;17.95;100.00
35023;BME280;21214;44.912;8.204;2023-05-29T06:41:25;99676.66;;;17.90;100.00
35023;BME280;21214;44.912;8.204;2023-05-29T06:43:50;99679.28;;;18.05;100.00
35023;BME280;21214;44.912;8.204;2023-05-29T06:46:16;99677.44;;;18.20;100.00
35023;BME280;21214;44.912;8.204;2023-05-29T06:48:43;99676.72;;;18.32;100.00
35023;BME280;21214;44.912;8.204;2023-05-29T06:51:09;99678.53;;;18.47;100.00
35023;BME280;21214;44.912;8.204;2023-05-29T06:53:39;99682.03;;;18.47;100.00
35023;BME280;21214;44.912;8.204;2023-05-29T06:56:06;99678.78;;;18.30;100.00
35023;BME280;21214;44.912;8.204;2023-05-29T06:58:33;99679.22;;;18.34;100.00
35023;BME280;21214;44.912;8.204;2023-05-29T07:00:58;99683.47;;;18.50;100.00
35023;BME280;21214;44.912;8.204;2023-05-29T07:03:31;99689.88;;;18.70;100.00
35023;BME280;21214;44.912;8.204;2023-05-29T07:05:56;99678.66;;;18.81;100.00
35023;BME280;21214;44.912;8.204;2023-05-29T07:08:22;99680.56;;;18.87;100.00
35023;BME280;21214;44.912;8.204;2023-05-29T07:10:49;99670.53;;;18.89;100.00
35023;BME280;21214;44.912;8.204;2023-05-29T07:13:16;99674.03;;;18.90;100.00
35023;BME280;21214;44.912;8.204;2023-05-29T07:15:43;99684.00;;;18.81;100.00
35023;BME280;21214;44.912;8.204;2023-05-29T07:18:09;99678.53;;;18.89;100.00
35023;BME280;21214;44.912;8.204;2023-05-29T07:20:35;99682.97;;;19.03;100.00
35023;BME280;21214;44.912;8.204;2023-05-29T07:23:01;99688.06;;;18.98;100.00
35023;BME280;21214;44.912;8.204;2023-05-29T07:25:27;99682.22;;;18.88;100.00
35023;BME280;21214;44.912;8.204;2023-05-29T07:27:52;99695.97;;;19.06;100.00
35023;BME280;21214;44.912;8.204;2023-05-29T07:30:18;99696.44;;;19.16;100.00
35023;BME280;21214;44.912;8.204;2023-05-29T07:32:44;99694.88;;;19.29;100.00
35023;BME280;21214;44.912;8.204;2023-05-29T07:35:10;99695.34;;;19.39;100.00
35023;BME280;21214;44.912;8.204;2023-05-29T07:37:36;99702.06;;;19.49;100.00
35023;BME280;21214;44.912;8.204;2023-05-29T07:40:03;99704.19;;;19.60;100.00
35023;BME280;21214;44.912;8.204;2023-05-29T07:42:50;99702.16;;;19.69;100.00
35023;BME280;21214;44.912;8.204;2023-05-29T07:45:16;99687.19;;;19.81;100.00
35023;BME280;21214;44.912;8.204;2023-05-29T07:47:41;99695.66;;;19.85;100.00
35023;BME280;21214;44.912;8.204;2023-05-29T07:50:07;99690.31;;;19.85;100.00
35023;BME280;21214;44.912;8.204;2023-05-29T07:52:33;99698.91;;;19.80;100.00
35023;BME280;21214;44.912;8.204;2023-05-29T07:54:58;99696.66;;;19.77;100.00
35023;BME280;21214;44.912;8.204;2023-05-29T07:57:24;99693.06;;;19.63;100.00
35023;BME280;21214;44.912;8.204;2023-05-29T07:59:52;99694.31;;;19.61;100.00
35023;BME280;21214;44.912;8.204;2023-05-29T08:02:19;99688.59;;;19.71;100.00
35023;BME280;21214;44.912;8.204;2023-05-29T08:05:14;99693.19;;;19.83;100.00
35023;BME280;21214;44.912;8.204;2023-05-29T08:07:40;99701.44;;;19.88;100.00
35023;BME280;21214;44.912;8.204;2023-05-29T08:10:07;99698.75;;;19.88;100.00
35023;BME280;21214;44.912;8.204;2023-05-29T08:12:32;99701.81;;;19.85;100.00
35023;BME280;21214;44.912;8.204;2023-05-29T08:15:00;99702.47;;;19.87;100.00
35023;BME280;21214;44.912;8.204;2023-05-29T08:17:26;99703.78;;;20.04;100.00
35023;BME280;21214;44.912;8.204;2023-05-29T08:19:51;99701.94;;;20.12;100.00
35023;BME280;21214;44.912;8.204;2023-05-29T08:22:16;99701.53;;;20.15;100.00
35023;BME280;21214;44.912;8.204;2023-05-29T08:24:42;99702.59;;;20.27;100.00
35023;BME280;21214;44.912;8.204;2023-05-29T08:27:07;99704.75;;;20.38;100.00
35023;BME280;21214;44.912;8.204;2023-05-29T08:29:32;99699.19;;;20.46;100.00
35023;BME280;21214;44.912;8.204;2023-05-29T08:31:58;99701.66;;;20.41;100.00
35023;BME280;21214;44.912;8.204;2023-05-29T08:34:23;99705.78;;;20.37;100.00
35023;BME280;21214;44.912;8.204;2023-05-29T08:36:48;99712.56;;;20.33;100.00
35023;BME280;21214;44.912;8.204;2023-05-29T08:39:16;99715.06;;;20.41;100.00
35023;BME280;21214;44.912;8.204;2023-05-29T08:44:07;99713.25;;;20.55;100.00
35023;BME280;21214;44.912;8.204;2023-05-29T08:46:33;99718.00;;;20.59;100.00
35023;BME280;21214;44.912;8.204;2023-05-29T08:48:58;99714.28;;;20.60;100.00
35023;BME280;21214;44.912;8.204;2023-05-29T08:51:27;99724.38;;;20.58;100.00
35023;BME280;21214;44.912;8.204;2023-05-29T08:53:56;99730.16;;;20.55;100.00
35023;BME280;21214;44.912;8.204;2023-05-29T08:56:22;99733.47;;;20.64;100.00
35023;BME280;21214;44.912;8.204;2023-05-29T08:58:47;99727.31;;;20.76;100.00
35023;BME280;21214;44.912;8.204;2023-05-29T09:01:15;99731.88;;;20.96;100.00
35023;BME280;21214;44.912;8.204;2023-05-29T09:03:40;99733.13;;;21.13;100.00
35023;BME280;21214;44.912;8.204;2023-05-29T09:06:07;99734.19;;;21.25;100.00
35023;BME280;21214;44.912;8.204;2023-05-29T09:08:33;99726.53;;;21.35;100.00
35023;BME280;21214;44.912;8.204;2023-05-29T09:10:59;99723.63;;;21.43;100.00
35023;BME280;21214;44.912;8.204;2023-05-29T09:13:24;99728.56;;;21.46;100.00
35023;BME280;21214;44.912;8.204;2023-05-29T09:15:50;99724.88;;;21.41;100.00
35023;BME280;21214;44.912;8.204;2023-05-29T09:18:16;99723.84;;;21.35;100.00
35023;BME280;21214;44.912;8.204;2023-05-29T09:20:42;99727.97;;;21.31;100.00
35023;BME280;21214;44.912;8.204;2023-05-29T09:23:09;99727.78;;;21.26;100.00
35023;BME280;21214;44.912;8.204;2023-05-29T09:25:41;99731.88;;;21.22;100.00
35023;BME280;21214;44.912;8.204;2023-05-29T09:28:11;99729.44;;;21.20;100.00
35023;BME280;21214;44.912;8.204;2023-05-29T09:30:40;99729.81;;;21.11;100.00
35023;BME280;21214;44.912;8.204;2023-05-29T09:33:07;99729.41;;;21.14;100.00
35023;BME280;21214;44.912;8.204;2023-05-29T09:35:33;99729.63;;;21.19;100.00
35023;BME280;21214;44.912;8.204;2023-05-29T09:37:58;99725.28;;;21.31;100.00
35023;BME280;21214;44.912;8.204;2023-05-29T09:40:23;99726.09;;;21.45;100.00
35023;BME280;21214;44.912;8.204;2023-05-29T09:42:49;99731.06;;;21.41;100.00
35023;BME280;21214;44.912;8.204;2023-05-29T09:45:16;99728.56;;;21.46;100.00
35023;BME280;21214;44.912;8.204;2023-05-29T09:47:42;99727.72;;;21.59;100.00
35023;BME280;21214;44.912;8.204;2023-05-29T09:50:17;99726.63;;;21.80;100.00
35023;BME280;21214;44.912;8.204;2023-05-29T09:52:43;99728.91;;;21.83;100.00
35023;BME280;21214;44.912;8.204;2023-05-29T09:55:08;99728.06;;;22.02;100.00
35023;BME280;21214;44.912;8.204;2023-05-29T09:57:35;99731.53;;;22.09;100.00
35023;BME280;21214;44.912;8.204;2023-05-29T10:00:02;99733.81;;;22.12;100.00
35023;BME280;21214;44.912;8.204;2023-05-29T10:02:37;99726.34;;;22.14;100.00
35023;BME280;21214;44.912;8.204;2023-05-29T10:05:02;99724.69;;;22.13;100.00
35023;BME280;21214;44.912;8.204;2023-05-29T10:07:28;99733.00;;;22.05;100.00
35023;BME280;21214;44.912;8.204;2023-05-29T10:10:02;99722.88;;;22.07;100.00
35023;BME280;21214;44.912;8.204;2023-05-29T10:12:28;99728.91;;;21.96;100.00
35023;BME280;21214;44.912;8.204;2023-05-29T10:14:56;99727.03;;;22.03;100.00
35023;BME280;21214;44.912;8.204;2023-05-29T10:17:23;99727.97;;;22.15;100.00
35023;BME280;21214;44.912;8.204;2023-05-29T10:19:50;99719.88;;;22.28;100.00
35023;BME280;21214;44.912;8.204;2023-05-29T10:22:18;99721.91;;;22.33;100.00
35023;BME280;21214;44.912;8.204;2023-05-29T10:24:44;99718.09;;;22.09;100.00
35023;BME280;21214;44.912;8.204;2023-05-29T10:27:11;99717.91;;;22.04;100.00
35023;BME280;21214;44.912;8.204;2023-05-29T10:29:37;99712.53;;;22.04;100.00
35023;BME280;21214;44.912;8.204;2023-05-29T10:32:06;99714.19;;;22.05;100.00
35023;BME280;21214;44.912;8.204;2023-05-29T10:37:03;99712.50;;;22.11;100.00
35023;BME280;21214;44.912;8.204;2023-05-29T10:39:31;99703.78;;;22.15;100.00
35023;BME280;21214;44.912;8.204;2023-05-29T10:41:56;99704.44;;;22.11;100.00
35023;BME280;21214;44.912;8.204;2023-05-29T10:44:41;99702.34;;;22.19;100.00
35023;BME280;21214;44.912;8.204;2023-05-29T10:47:06;99699.22;;;22.22;100.00
35023;BME280;21214;44.912;8.204;2023-05-29T10:49:33;99701.50;;;22.25;100.00
35023;BME280;21214;44.912;8.204;2023-05-29T10:51:59;99695.25;;;22.31;100.00
35023;BME280;21214;44.912;8.204;2023-05-29T10:54:26;99695.78;;;22.46;100.00
35023;BME280;21214;44.912;8.204;2023-05-29T10:56:52;99702.91;;;22.66;100.00
35023;BME280;21214;44.912;8.204;2023-05-29T10:59:17;99696.41;;;22.80;100.00
35023;BME280;21214;44.912;8.204;2023-05-29T11:01:43;99701.84;;;22.98;100.00
35023;BME280;21214;44.912;8.204;2023-05-29T11:06:41;99700.38;;;23.02;100.00
35023;BME280;21214;44.912;8.204;2023-05-29T11:09:07;99693.50;;;23.06;100.00
35023;BME280;21214;44.912;8.204;2023-05-29T11:12:09;99693.88;;;23.10;100.00
35023;BME280;21214;44.912;8.204;2023-05-29T11:14:45;99692.19;;;23.15;100.00
35023;BME280;21214;44.912;8.204;2023-05-29T11:17:31;99691.44;;;23.08;100.00
35023;BME280;21214;44.912;8.204;2023-05-29T11:19:56;99692.69;;;23.06;100.00
35023;BME280;21214;44.912;8.204;2023-05-29T11:22:25;99684.81;;;23.04;100.00
35023;BME280;21214;44.912;8.204;2023-05-29T11:24:52;99678.63;;;23.04;100.00
35023;BME280;21214;44.912;8.204;2023-05-29T11:27:18;99674.50;;;23.01;100.00
35023;BME280;21214;44.912;8.204;2023-05-29T11:29:44;99682.44;;;22.96;100.00
35023;BME280;21214;44.912;8.204;2023-05-29T11:32:11;99677.47;;;22.93;100.00
35023;BME280;21214;44.912;8.204;2023-05-29T11:34:39;99678.41;;;22.80;100.00
35023;BME280;21214;44.912;8.204;2023-05-29T11:37:04;99679.38;;;22.86;98.56
35023;BME280;21214;44.912;8.204;2023-05-29T11:39:30;99669.06;;;22.83;96.27
35023;BME280;21214;44.912;8.204;2023-05-29T11:41:58;99665.78;;;22.81;94.80
35023;BME280;21214;44.912;8.204;2023-05-29T11:44:25;99656.88;;;22.80;97.28
35023;BME280;21214;44.912;8.204;2023-05-29T11:47:11;99657.69;;;22.81;96.87
35023;BME280;21214;44.912;8.204;2023-05-29T11:49:37;99653.97;;;22.82;95.85
35023;BME280;21214;44.912;8.204;2023-05-29T11:54:34;99646.88;;;22.88;95.93
35023;BME280;21214;44.912;8.204;2023-05-29T11:57:00;99649.69;;;22.99;98.92
35023;BME280;21214;44.912;8.204;2023-05-29T11:59:28;99648.75;;;23.12;100.00
35023;BME280;21214;44.912;8.204;2023-05-29T12:01:53;99637.78;;;23.32;99.38
35023;BME280;21214;44.912;8.204;2023-05-29T12:04:19;99635.72;;;23.52;98.13
35023;BME280;21214;44.912;8.204;2023-05-29T12:06:44;99638.56;;;23.75;96.43
35023;BME280;21214;44.912;8.204;2023-05-29T12:09:10;99629.69;;;23.86;95.87
35023;BME280;21214;44.912;8.204;2023-05-29T12:11:49;99630.28;;;24.06;94.43
35023;BME280;21214;44.912;8.204;2023-05-29T12:14:14;99635.94;;;24.17;92.56
35023;BME280;21214;44.912;8.204;2023-05-29T12:16:39;99627.38;;;24.38;92.34
35023;BME280;21214;44.912;8.204;2023-05-29T12:19:05;99635.13;;;24.46;88.43
35023;BME280;21214;44.912;8.204;2023-05-29T12:21:30;99628.13;;;24.68;86.60
35023;BME280;21214;44.912;8.204;2023-05-29T12:23:56;99628.44;;;24.90;87.58
35023;BME280;21214;44.912;8.204;2023-05-29T12:26:22;99619.63;;;25.06;84.91
35023;BME280;21214;44.912;8.204;2023-05-29T12:28:48;99616.69;;;25.31;85.36
35023;BME280;21214;44.912;8.204;2023-05-29T12:31:13;99622.78;;;25.38;85.18
35023;BME280;21214;44.912;8.204;2023-05-29T12:33:42;99612.66;;;25.45;86.74
35023;BME280;21214;44.912;8.204;2023-05-29T12:36:08;99626.41;;;25.67;84.82
35023;BME280;21214;44.912;8.204;2023-05-29T12:38:48;99623.69;;;25.55;85.19
35023;BME280;21214;44.912;8.204;2023-05-29T12:41:24;99615.59;;;25.44;85.04
35023;BME280;21214;44.912;8.204;2023-05-29T12:43:52;99621.81;;;25.56;85.12
35023;BME280;21214;44.912;8.204;2023-05-29T12:46:17;99613.19;;;25.82;83.62
35023;BME280;21214;44.912;8.204;2023-05-29T12:48:43;99618.16;;;26.02;84.04
35023;BME280;21214;44.912;8.204;2023-05-29T12:51:08;99604.81;;;26.24;82.21
35023;BME280;21214;44.912;8.204;2023-05-29T12:53:33;99606.38;;;26.36;81.78
35023;BME280;21214;44.912;8.204;2023-05-29T12:55:59;99596.63;;;26.35;80.92
35023;BME280;21214;44.912;8.204;2023-05-29T12:58:24;99593.53;;;26.77;81.49
35023;BME280;21214;44.912;8.204;2023-05-29T13:00:52;99597.13;;;26.66;79.46
35023;BME280;21214;44.912;8.204;2023-05-29T13:03:21;99588.75;;;26.84;79.52